sensor_id;sensor_type;location;lat;lon;timestamp;pressure;altitude;pressure_sealevel;temperature;humidity
17383;BME280;8809;51.892;8.384;2023-09-19T00:00:19;99728.03;;;23.49;75.67
17383;BME280;8809;51.892;8.384;2023-09-19T00:02:52;99738.56;;;23.55;75.41
17383;BME280;8809;51.892;8.384;2023-09-19T00:05:19;99736.97;;;23.83;74.59
17383;BME280;8809;51.892;8.384;2023-09-19T00:07:50;99737.50;;;23.62;75.09
17383;BME280;8809;51.892;8.384;2023-09-19T00:10:20;99733.78;;;23.69;74.33
17383;BME280;8809;51.892;8.384;2023-09-19T00:12:50;99733.81;;;23.30;76.52
17383;BME280;8809;51.892;8.384;2023-09-19T00:15:19;99743.06;;;23.16;76.98
17383;BME280;8809;51.892;8.384;2023-09-19T00:17:46;99736.47;;;23.30;76.46
17383;BME280;8809;51.892;8.384;2023-09-19T00:20:13;99747.34;;;23.21;77.04
17383;BME280;8809;51.892;8.384;2023-09-19T00:22:43;99753.59;;;23.19;77.10
17383;BME280;8809;51.892;8.384;2023-09-19T00:25:10;99749.16;;;23.19;76.81
17383;BME280;8809;51.892;8.384;2023-09-19T00:27:38;99744.88;;;23.14;77.31
17383;BME280;8809;51.892;8.384;2023-09-19T00:30:10;99754.03;;;23.01;77.49
17383;BME280;8809;51.892;8.384;2023-09-19T00:32:42;99758.88;;;22.82;78.52
17383;BME280;8809;51.892;8.384;2023-09-19T00:35:10;99761.03;;;23.05;77.43
17383;BME280;8809;51.892;8.384;2023-09-19T00:37:37;99750.50;;;23.00;77.53
17383;BME280;8809;51.892;8.384;2023-09-19T00:40:06;99755.97;;;22.92;77.61
17383;BME280;8809;51.892;8.384;2023-09-19T00:42:36;99754.41;;;22.84;77.92
17383;BME280;8809;51.892;8.384;2023-09-19T00:45:05;99760.56;;;22.86;77.82
17383;BME280;8809;51.892;8.384;2023-09-19T00:47:34;99767.25;;;23.05;76.75
17383;BME280;8809;51.892;8.384;2023-09-19T00:50:01;99771.47;;;23.14;76.37
17383;BME280;8809;51.892;8.384;2023-09-19T00:52:29;99769.47;;;23.23;75.86
17383;BME280;8809;51.892;8.384;2023-09-19T00:54:58;99766.88;;;23.20;76.24
17383;BME280;8809;51.892;8.384;2023-09-19T00:57:25;99776.47;;;23.27;75.50
17383;BME280;8809;51.892;8.384;2023-09-19T00:59:54;99771.72;;;23.03;76.41
17383;BME280;8809;51.892;8.384;2023-09-19T01:02:22;99786.97;;;22.95;75.76
17383;BME280;8809;51.892;8.384;2023-09-19T01:04:51;99786.34;;;23.22;74.25
17383;BME280;8809;51.892;8.384;2023-09-19T01:07:19;99779.53;;;23.11;74.54
17383;BME280;8809;51.892;8.384;2023-09-19T01:09:47;99793.69;;;23.11;74.14
17383;BME280;8809;51.892;8.384;2023-09-19T01:12:16;99783.31;;;22.99;74.93
17383;BME280;8809;51.892;8.384;2023-09-19T01:14:51;99794.84;;;23.00;74.94
17383;BME280;8809;51.892;8.384;2023-09-19T01:17:29;99793.16;;;22.97;74.98
17383;BME280;8809;51.892;8.384;2023-09-19T01:20:17;99790.75;;;22.85;75.41
17383;BME280;8809;51.892;8.384;2023-09-19T01:22:53;99797.00;;;22.81;75.26
17383;BME280;8809;51.892;8.384;2023-09-19T01:26:05;99801.22;;;22.91;74.91
17383;BME280;8809;51.892;8.384;2023-09-19T01:28:43;99798.41;;;22.99;74.59
17383;BME280;8809;51.892;8.384;2023-09-19T01:31:15;99802.94;;;22.95;74.57
17383;BME280;8809;51.892;8.384;2023-09-19T01:33:56;99809.81;;;22.61;74.67
17383;BME280;8809;51.892;8.384;2023-09-19T01:36:26;99809.75;;;22.64;74.14
17383;BME280;8809;51.892;8.384;2023-09-19T01:38:54;99804.38;;;22.67;73.52
17383;BME280;8809;51.892;8.384;2023-09-19T01:41:28;99817.88;;;22.57;73.87
17383;BME280;8809;51.892;8.384;2023-09-19T01:43:59;99828.50;;;22.57;73.47
17383;BME280;8809;51.892;8.384;2023-09-19T01:46:34;99816.81;;;22.65;72.78
17383;BME280;8809;51.892;8.384;2023-09-19T01:49:09;99818.44;;;22.72;72.64
17383;BME280;8809;51.892;8.384;2023-09-19T01:51:51;99827.84;;;22.91;71.49
17383;BME280;8809;51.892;8.384;2023-09-19T01:54:26;99825.03;;;22.52;72.90
17383;BME280;8809;51.892;8.384;2023-09-19T01:56:59;99818.94;;;22.47;73.20
17383;BME280;8809;51.892;8.384;2023-09-19T01:59:35;99833.88;;;22.53;73.02
17383;BME280;8809;51.892;8.384;2023-09-19T02:02:06;99830.56;;;22.40;72.59
17383;BME280;8809;51.892;8.384;2023-09-19T02:04:34;99836.69;;;22.45;72.82
17383;BME280;8809;51.892;8.384;2023-09-19T02:07:02;99829.81;;;22.34;73.52
17383;BME280;8809;51.892;8.384;2023-09-19T02:09:31;99843.41;;;22.18;73.88
17383;BME280;8809;51.892;8.384;2023-09-19T02:12:01;99848.06;;;22.04;73.40
17383;BME280;8809;51.892;8.384;2023-09-19T02:14:30;99848.91;;;22.08;73.13
17383;BME280;8809;51.892;8.384;2023-09-19T02:16:57;99850.53;;;22.16;73.49
17383;BME280;8809;51.892;8.384;2023-09-19T02:19:26;99853.16;;;22.18;73.19
17383;BME280;8809;51.892;8.384;2023-09-19T02:21:53;99850.25;;;22.30;72.76
17383;BME280;8809;51.892;8.384;2023-09-19T02:24:21;99853.22;;;22.13;73.19
17383;BME280;8809;51.892;8.384;2023-09-19T02:26:52;99856.94;;;22.02;73.61
17383;BME280;8809;51.892;8.384;2023-09-19T02:29:21;99850.66;;;22.09;73.25
17383;BME280;8809;51.892;8.384;2023-09-19T02:31:48;99859.22;;;22.26;71.92
17383;BME280;8809;51.892;8.384;2023-09-19T02:34:15;99857.63;;;22.16;72.11
17383;BME280;8809;51.892;8.384;2023-09-19T02:36:44;99855.84;;;22.15;72.23
17383;BME280;8809;51.892;8.384;2023-09-19T02:39:11;99854.13;;;22.12;72.43
17383;BME280;8809;51.892;8.384;2023-09-19T02:41:39;99852.66;;;22.45;71.00
17383;BME280;8809;51.892;8.384;2023-09-19T02:44:07;99847.97;;;22.10;72.10
17383;BME280;8809;51.892;8.384;2023-09-19T02:46:35;99858.72;;;22.01;72.24
17383;BME280;8809;51.892;8.384;2023-09-19T02:49:03;99857.94;;;21.95;72.36
17383;BME280;8809;51.892;8.384;2023-09-19T02:51:32;99863.25;;;21.95;72.79
17383;BME280;8809;51.892;8.384;2023-09-19T02:54:01;99864.03;;;22.01;72.40
17383;BME280;8809;51.892;8.384;2023-09-19T02:56:29;99868.56;;;21.95;72.75
17383;BME280;8809;51.892;8.384;2023-09-19T02:58:59;99867.81;;;21.85;72.93
17383;BME280;8809;51.892;8.384;2023-09-19T03:01:27;99878.31;;;21.93;72.49
17383;BME280;8809;51.892;8.384;2023-09-19T03:03:54;99868.59;;;21.92;72.81
17383;BME280;8809;51.892;8.384;2023-09-19T03:06:22;99881.94;;;21.89;72.88
17383;BME280;8809;51.892;8.384;2023-09-19T03:08:49;99879.38;;;21.82;73.00
17383;BME280;8809;51.892;8.384;2023-09-19T03:11:18;99884.34;;;22.07;71.51
17383;BME280;8809;51.892;8.384;2023-09-19T03:13:51;99882.97;;;21.81;73.18
17383;BME280;8809;51.892;8.384;2023-09-19T03:16:19;99888.03;;;21.98;72.32
17383;BME280;8809;51.892;8.384;2023-09-19T03:18:48;99891.75;;;21.83;72.23
17383;BME280;8809;51.892;8.384;2023-09-19T03:21:15;99897.78;;;21.98;71.46
17383;BME280;8809;51.892;8.384;2023-09-19T03:23:42;99898.03;;;21.78;72.06
17383;BME280;8809;51.892;8.384;2023-09-19T03:26:11;99896.44;;;21.66;72.66
17383;BME280;8809;51.892;8.384;2023-09-19T03:28:41;99906.63;;;21.98;71.45
17383;BME280;8809;51.892;8.384;2023-09-19T03:31:09;99903.97;;;21.94;70.80
17383;BME280;8809;51.892;8.384;2023-09-19T03:33:37;99905.72;;;21.96;71.18
17383;BME280;8809;51.892;8.384;2023-09-19T03:36:04;99900.81;;;21.70;71.75
17383;BME280;8809;51.892;8.384;2023-09-19T03:38:33;99903.50;;;21.69;71.98
17383;BME280;8809;51.892;8.384;2023-09-19T03:41:00;99901.78;;;21.63;72.18
17383;BME280;8809;51.892;8.384;2023-09-19T03:43:29;99894.81;;;21.58;71.97
17383;BME280;8809;51.892;8.384;2023-09-19T03:46:02;99893.66;;;21.75;71.47
17383;BME280;8809;51.892;8.384;2023-09-19T03:48:30;99896.41;;;21.69;71.27
17383;BME280;8809;51.892;8.384;2023-09-19T03:50:59;99895.50;;;21.70;71.32
17383;BME280;8809;51.892;8.384;2023-09-19T03:53:26;99895.66;;;21.60;71.28
17383;BME280;8809;51.892;8.384;2023-09-19T03:55:53;99892.19;;;21.55;70.53
17383;BME280;8809;51.892;8.384;2023-09-19T03:58:20;99893.91;;;21.59;70.67
17383;BME280;8809;51.892;8.384;2023-09-19T04:00:49;99894.84;;;21.55;70.46
17383;BME280;8809;51.892;8.384;2023-09-19T04:03:19;99894.69;;;21.64;69.62
17383;BME280;8809;51.892;8.384;2023-09-19T04:05:46;99896.59;;;21.56;70.34
17383;BME280;8809;51.892;8.384;2023-09-19T04:08:15;99899.22;;;21.57;70.31
17383;BME280;8809;51.892;8.384;2023-09-19T04:10:43;99899.41;;;21.45;69.96
17383;BME280;8809;51.892;8.384;2023-09-19T04:13:11;99908.44;;;21.32;69.50
17383;BME280;8809;51.892;8.384;2023-09-19T04:15:38;99894.19;;;21.37;69.57
17383;BME280;8809;51.892;8.384;2023-09-19T04:18:06;99905.69;;;21.38;69.12
17383;BME280;8809;51.892;8.384;2023-09-19T04:20:35;99906.56;;;21.40;69.42
17383;BME280;8809;51.892;8.384;2023-09-19T04:23:02;99906.09;;;21.04;70.10
17383;BME280;8809;51.892;8.384;2023-09-19T04:25:31;99901.69;;;21.03;69.90
17383;BME280;8809;51.892;8.384;2023-09-19T04:28:01;99912.19;;;21.13;69.16
17383;BME280;8809;51.892;8.384;2023-09-19T04:30:30;99904.03;;;21.31;68.65
17383;BME280;8809;51.892;8.384;2023-09-19T04:32:57;99917.53;;;21.08;69.49
17383;BME280;8809;51.892;8.384;2023-09-19T04:35:27;99920.41;;;20.88;69.92
17383;BME280;8809;51.892;8.384;2023-09-19T04:37:58;99914.13;;;20.97;69.69
17383;BME280;8809;51.892;8.384;2023-09-19T04:40:25;99925.78;;;20.85;70.12
17383;BME280;8809;51.892;8.384;2023-09-19T04:42:54;99936.41;;;20.79;70.31
17383;BME280;8809;51.892;8.384;2023-09-19T04:45:22;99925.81;;;20.81;70.07
17383;BME280;8809;51.892;8.384;2023-09-19T04:47:50;99924.94;;;20.80;69.33
17383;BME280;8809;51.892;8.384;2023-09-19T04:50:17;99937.94;;;21.01;69.10
17383;BME280;8809;51.892;8.384;2023-09-19T04:52:45;99936.13;;;21.05;68.88
17383;BME280;8809;51.892;8.384;2023-09-19T04:55:18;99931.88;;;20.93;68.92
17383;BME280;8809;51.892;8.384;2023-09-19T04:57:45;99940.69;;;20.94;69.47
17383;BME280;8809;51.892;8.384;2023-09-19T05:00:14;99944.34;;;20.85;69.26
17383;BME280;8809;51.892;8.384;2023-09-19T05:02:42;99947.13;;;20.67;69.91
17383;BME280;8809;51.892;8.384;2023-09-19T05:05:10;99955.88;;;20.78;69.21
17383;BME280;8809;51.892;8.384;2023-09-19T05:07:42;99956.56;;;20.95;69.24
17383;BME280;8809;51.892;8.384;2023-09-19T05:10:09;99963.41;;;21.16;67.06
17383;BME280;8809;51.892;8.384;2023-09-19T05:12:38;99963.50;;;21.08;67.81
17383;BME280;8809;51.892;8.384;2023-09-19T05:15:07;99961.22;;;20.75;68.61
17383;BME280;8809;51.892;8.384;2023-09-19T05:17:35;99963.69;;;20.93;68.14
17383;BME280;8809;51.892;8.384;2023-09-19T05:20:03;99959.28;;;20.91;67.87
17383;BME280;8809;51.892;8.384;2023-09-19T05:22:40;99971.66;;;20.92;67.47
17383;BME280;8809;51.892;8.384;2023-09-19T05:25:08;99972.47;;;20.97;67.40
17383;BME280;8809;51.892;8.384;2023-09-19T05:27:36;99965.38;;;21.00;66.89
17383;BME280;8809;51.892;8.384;2023-09-19T05:30:05;99977.66;;;21.09;66.44
17383;BME280;8809;51.892;8.384;2023-09-19T05:32:33;99983.81;;;21.11;66.20
17383;BME280;8809;51.892;8.384;2023-09-19T05:35:01;99993.47;;;21.20;65.91
17383;BME280;8809;51.892;8.384;2023-09-19T05:37:29;100001.13;;;21.44;64.50
17383;BME280;8809;51.892;8.384;2023-09-19T05:39:56;100001.13;;;21.44;65.17
17383;BME280;8809;51.892;8.384;2023-09-19T05:42:23;100009.53;;;21.04;66.42
17383;BME280;8809;51.892;8.384;2023-09-19T05:44:50;100012.09;;;21.14;66.32
17383;BME280;8809;51.892;8.384;2023-09-19T05:47:20;100010.34;;;21.11;66.66
17383;BME280;8809;51.892;8.384;2023-09-19T05:49:48;100016.53;;;21.11;66.14
17383;BME280;8809;51.892;8.384;2023-09-19T05:52:16;100023.78;;;20.94;66.70
17383;BME280;8809;51.892;8.384;2023-09-19T05:54:44;100024.63;;;20.96;67.00
17383;BME280;8809;51.892;8.384;2023-09-19T05:57:11;100021.22;;;20.85;66.77
17383;BME280;8809;51.892;8.384;2023-09-19T05:59:39;100023.09;;;20.76;66.99
17383;BME280;8809;51.892;8.384;2023-09-19T06:02:08;100030.81;;;20.97;66.72
17383;BME280;8809;51.892;8.384;2023-09-19T06:04:36;100022.72;;;21.12;66.20
17383;BME280;8809;51.892;8.384;2023-09-19T06:07:06;100033.44;;;21.00;66.29
17383;BME280;8809;51.892;8.384;2023-09-19T06:09:33;100032.44;;;21.11;66.13
17383;BME280;8809;51.892;8.384;2023-09-19T06:12:01;100031.59;;;21.05;66.48
17383;BME280;8809;51.892;8.384;2023-09-19T06:14:30;100030.59;;;21.17;66.42
17383;BME280;8809;51.892;8.384;2023-09-19T06:16:57;100024.41;;;21.16;66.37
17383;BME280;8809;51.892;8.384;2023-09-19T06:19:26;100027.00;;;21.25;65.89
17383;BME280;8809;51.892;8.384;2023-09-19T06:21:54;100018.13;;;21.31;65.67
17383;BME280;8809;51.892;8.384;2023-09-19T06:24:21;100021.69;;;21.27;65.43
17383;BME280;8809;51.892;8.384;2023-09-19T06:26:48;100019.91;;;21.29;65.82
17383;BME280;8809;51.892;8.384;2023-09-19T06:29:16;100021.78;;;21.21;66.27
17383;BME280;8809;51.892;8.384;2023-09-19T06:31:43;100026.19;;;21.20;66.32
17383;BME280;8809;51.892;8.384;2023-09-19T06:34:10;100025.28;;;21.23;66.29
17383;BME280;8809;51.892;8.384;2023-09-19T06:36:41;100020.03;;;21.18;65.70
17383;BME280;8809;51.892;8.384;2023-09-19T06:39:10;100033.47;;;20.97;66.46
17383;BME280;8809;51.892;8.384;2023-09-19T06:41:38;100037.88;;;20.96;66.31
17383;BME280;8809;51.892;8.384;2023-09-19T06:44:07;100034.22;;;21.11;66.44
17383;BME280;8809;51.892;8.384;2023-09-19T06:46:35;100043.88;;;21.15;65.92
17383;BME280;8809;51.892;8.384;2023-09-19T06:49:05;100046.53;;;21.17;65.99
17383;BME280;8809;51.892;8.384;2023-09-19T06:51:32;100051.63;;;21.39;65.64
17383;BME280;8809;51.892;8.384;2023-09-19T06:54:01;100034.72;;;21.50;65.60
17383;BME280;8809;51.892;8.384;2023-09-19T06:56:29;100048.09;;;21.40;65.81
17383;BME280;8809;51.892;8.384;2023-09-19T06:58:58;100035.91;;;21.17;66.17
17383;BME280;8809;51.892;8.384;2023-09-19T07:01:29;100038.47;;;21.32;66.07
17383;BME280;8809;51.892;8.384;2023-09-19T07:03:57;100048.19;;;21.31;65.92
17383;BME280;8809;51.892;8.384;2023-09-19T07:06:25;100042.81;;;21.36;65.76
17383;BME280;8809;51.892;8.384;2023-09-19T07:08:52;100036.59;;;21.41;65.99
17383;BME280;8809;51.892;8.384;2023-09-19T07:11:22;100044.56;;;21.38;65.91
17383;BME280;8809;51.892;8.384;2023-09-19T07:13:51;100047.22;;;21.37;65.96
17383;BME280;8809;51.892;8.384;2023-09-19T07:16:19;100072.06;;;21.31;65.94
17383;BME280;8809;51.892;8.384;2023-09-19T07:18:55;100057.81;;;21.41;66.16
17383;BME280;8809;51.892;8.384;2023-09-19T07:21:23;100065.78;;;21.38;66.13
17383;BME280;8809;51.892;8.384;2023-09-19T07:23:50;100075.72;;;21.17;66.26
17383;BME280;8809;51.892;8.384;2023-09-19T07:26:17;100074.66;;;21.36;66.34
17383;BME280;8809;51.892;8.384;2023-09-19T07:28:44;100078.97;;;21.46;66.11
17383;BME280;8809;51.892;8.384;2023-09-19T07:31:14;100077.19;;;21.50;65.61
17383;BME280;8809;51.892;8.384;2023-09-19T07:33:42;100078.97;;;21.44;66.05
17383;BME280;8809;51.892;8.384;2023-09-19T07:36:10;100081.63;;;21.46;65.92
17383;BME280;8809;51.892;8.384;2023-09-19T07:38:39;100085.16;;;21.48;65.59
17383;BME280;8809;51.892;8.384;2023-09-19T07:41:06;100076.84;;;21.78;64.92
17383;BME280;8809;51.892;8.384;2023-09-19T07:43:34;100080.34;;;21.80;65.41
17383;BME280;8809;51.892;8.384;2023-09-19T07:46:04;100073.41;;;21.69;65.20
17383;BME280;8809;51.892;8.384;2023-09-19T07:48:34;100076.63;;;21.95;65.17
17383;BME280;8809;51.892;8.384;2023-09-19T07:51:02;100083.69;;;21.95;64.56
17383;BME280;8809;51.892;8.384;2023-09-19T07:53:30;100079.25;;;22.00;64.00
17383;BME280;8809;51.892;8.384;2023-09-19T07:56:04;100082.56;;;22.17;63.99
17383;BME280;8809;51.892;8.384;2023-09-19T07:58:32;100077.22;;;22.20;63.75
17383;BME280;8809;51.892;8.384;2023-09-19T08:01:03;100076.09;;;22.35;63.61
17383;BME280;8809;51.892;8.384;2023-09-19T08:03:33;100083.22;;;22.33;63.00
17383;BME280;8809;51.892;8.384;2023-09-19T08:06:03;100078.75;;;22.35;62.88
17383;BME280;8809;51.892;8.384;2023-09-19T08:08:31;100082.88;;;22.55;62.55
17383;BME280;8809;51.892;8.384;2023-09-19T08:10:58;100081.31;;;22.41;62.54
17383;BME280;8809;51.892;8.384;2023-09-19T08:13:27;100080.56;;;22.31;63.05
17383;BME280;8809;51.892;8.384;2023-09-19T08:15:56;100078.59;;;22.47;62.74
17383;BME280;8809;51.892;8.384;2023-09-19T08:18:24;100074.16;;;22.46;63.02
17383;BME280;8809;51.892;8.384;2023-09-19T08:20:53;100076.69;;;22.55;62.97
17383;BME280;8809;51.892;8.384;2023-09-19T08:23:20;100079.53;;;22.41;63.85
17383;BME280;8809;51.892;8.384;2023-09-19T08:25:48;100085.38;;;22.66;63.00
17383;BME280;8809;51.892;8.384;2023-09-19T08:28:15;100085.38;;;22.65;62.73
17383;BME280;8809;51.892;8.384;2023-09-19T08:30:48;100102.09;;;22.76;61.97
17383;BME280;8809;51.892;8.384;2023-09-19T08:33:16;100100.25;;;22.79;62.15
17383;BME280;8809;51.892;8.384;2023-09-19T08:35:45;100101.34;;;22.65;61.87
17383;BME280;8809;51.892;8.384;2023-09-19T08:38:14;100106.63;;;22.68;61.64
17383;BME280;8809;51.892;8.384;2023-09-19T08:40:42;100111.91;;;22.69;62.21
17383;BME280;8809;51.892;8.384;2023-09-19T08:43:09;100103.91;;;22.69;61.66
17383;BME280;8809;51.892;8.384;2023-09-19T08:45:37;100122.63;;;22.65;61.32
17383;BME280;8809;51.892;8.384;2023-09-19T08:48:17;100116.00;;;22.93;60.70
17383;BME280;8809;51.892;8.384;2023-09-19T08:50:50;100107.31;;;22.80;60.86
17383;BME280;8809;51.892;8.384;2023-09-19T08:53:26;100104.75;;;22.74;61.89
17383;BME280;8809;51.892;8.384;2023-09-19T08:55:59;100103.75;;;22.83;62.01
17383;BME280;8809;51.892;8.384;2023-09-19T08:58:33;100104.53;;;22.88;61.61
17383;BME280;8809;51.892;8.384;2023-09-19T09:01:02;100111.88;;;22.71;60.86
17383;BME280;8809;51.892;8.384;2023-09-19T09:03:33;100112.66;;;22.80;61.02
17383;BME280;8809;51.892;8.384;2023-09-19T09:06:01;100124.09;;;22.85;60.54
17383;BME280;8809;51.892;8.384;2023-09-19T09:08:32;100119.84;;;22.75;61.10
17383;BME280;8809;51.892;8.384;2023-09-19T09:11:02;100119.50;;;22.95;61.21
17383;BME280;8809;51.892;8.384;2023-09-19T09:13:35;100116.84;;;22.95;61.35
17383;BME280;8809;51.892;8.384;2023-09-19T09:16:03;100118.22;;;23.17;60.63
17383;BME280;8809;51.892;8.384;2023-09-19T09:18:30;100119.50;;;22.95;61.23
17383;BME280;8809;51.892;8.384;2023-09-19T09:20:58;100125.66;;;23.48;59.52
17383;BME280;8809;51.892;8.384;2023-09-19T09:23:27;100125.69;;;22.97;59.42
17383;BME280;8809;51.892;8.384;2023-09-19T09:25:58;100110.94;;;23.28;59.44
17383;BME280;8809;51.892;8.384;2023-09-19T09:28:29;100117.69;;;23.48;59.67
17383;BME280;8809;51.892;8.384;2023-09-19T09:30:57;100115.34;;;23.29;60.02
17383;BME280;8809;51.892;8.384;2023-09-19T09:33:25;100133.19;;;23.26;58.65
17383;BME280;8809;51.892;8.384;2023-09-19T09:35:55;100123.75;;;23.57;58.11
17383;BME280;8809;51.892;8.384;2023-09-19T09:38:26;100113.63;;;23.27;58.98
17383;BME280;8809;51.892;8.384;2023-09-19T09:41:00;100111.50;;;23.46;59.29
17383;BME280;8809;51.892;8.384;2023-09-19T09:43:34;100118.38;;;23.59;57.93
17383;BME280;8809;51.892;8.384;2023-09-19T09:46:10;100111.59;;;23.89;57.48
17383;BME280;8809;51.892;8.384;2023-09-19T09:49:10;100108.28;;;24.19;56.33
17383;BME280;8809;51.892;8.384;2023-09-19T09:51:48;100112.06;;;24.08;56.15
17383;BME280;8809;51.892;8.384;2023-09-19T09:54:23;100114.69;;;24.11;56.32
17383;BME280;8809;51.892;8.384;2023-09-19T09:57:02;100107.72;;;23.60;58.07
17383;BME280;8809;51.892;8.384;2023-09-19T09:59:50;100116.13;;;24.27;57.38
17383;BME280;8809;51.892;8.384;2023-09-19T10:02:20;100105.31;;;24.33;56.45
17383;BME280;8809;51.892;8.384;2023-09-19T10:04:55;100106.75;;;24.08;56.65
17383;BME280;8809;51.892;8.384;2023-09-19T10:07:46;100094.81;;;24.27;56.10
17383;BME280;8809;51.892;8.384;2023-09-19T10:10:15;100103.81;;;24.21;55.49
17383;BME280;8809;51.892;8.384;2023-09-19T10:13:05;100109.00;;;24.27;55.54
17383;BME280;8809;51.892;8.384;2023-09-19T10:15:34;100106.88;;;24.43;55.43
17383;BME280;8809;51.892;8.384;2023-09-19T10:18:04;100110.66;;;24.33;55.17
17383;BME280;8809;51.892;8.384;2023-09-19T10:20:32;100112.19;;;24.43;54.68
17383;BME280;8809;51.892;8.384;2023-09-19T10:23:06;100113.63;;;24.59;55.67
17383;BME280;8809;51.892;8.384;2023-09-19T10:25:41;100115.97;;;24.33;54.84
17383;BME280;8809;51.892;8.384;2023-09-19T10:28:10;100114.44;;;24.23;54.80
17383;BME280;8809;51.892;8.384;2023-09-19T10:30:42;100119.88;;;24.17;53.68
17383;BME280;8809;51.892;8.384;2023-09-19T10:33:12;100114.88;;;24.01;53.97
17383;BME280;8809;51.892;8.384;2023-09-19T10:35:41;100116.88;;;23.90;54.42
17383;BME280;8809;51.892;8.384;2023-09-19T10:38:10;100117.22;;;24.15;54.32
17383;BME280;8809;51.892;8.384;2023-09-19T10:40:39;100118.91;;;24.21;54.22
17383;BME280;8809;51.892;8.384;2023-09-19T10:43:15;100106.97;;;24.40;55.16
17383;BME280;8809;51.892;8.384;2023-09-19T10:45:45;100107.69;;;24.47;54.88
17383;BME280;8809;51.892;8.384;2023-09-19T10:48:17;100108.75;;;24.76;55.13
17383;BME280;8809;51.892;8.384;2023-09-19T10:50:50;100116.41;;;24.92;54.33
17383;BME280;8809;51.892;8.384;2023-09-19T10:53:18;100109.28;;;24.91;53.40
17383;BME280;8809;51.892;8.384;2023-09-19T10:55:53;100118.63;;;25.10;53.12
17383;BME280;8809;51.892;8.384;2023-09-19T10:58:29;100107.03;;;25.11;52.66
17383;BME280;8809;51.892;8.384;2023-09-19T11:01:00;100113.75;;;25.27;51.99
17383;BME280;8809;51.892;8.384;2023-09-19T11:03:38;100113.09;;;25.18;51.15
17383;BME280;8809;51.892;8.384;2023-09-19T11:06:11;100101.97;;;25.34;51.11
17383;BME280;8809;51.892;8.384;2023-09-19T11:08:52;100106.53;;;25.65;50.70
17383;BME280;8809;51.892;8.384;2023-09-19T11:11:42;100111.63;;;25.38;49.48
17383;BME280;8809;51.892;8.384;2023-09-19T11:17:30;100099.13;;;25.40;51.82
17383;BME280;8809;51.892;8.384;2023-09-19T11:20:21;100101.13;;;25.66;51.26
17383;BME280;8809;51.892;8.384;2023-09-19T11:23:21;100097.03;;;25.85;50.91
17383;BME280;8809;51.892;8.384;2023-09-19T11:25:56;100080.78;;;25.61;50.97
17383;BME280;8809;51.892;8.384;2023-09-19T11:28:29;100088.63;;;25.34;50.20
17383;BME280;8809;51.892;8.384;2023-09-19T11:30:58;100079.91;;;25.59;50.00
17383;BME280;8809;51.892;8.384;2023-09-19T11:33:29;100076.94;;;25.71;49.03
17383;BME280;8809;51.892;8.384;2023-09-19T11:36:02;100087.81;;;25.65;48.62
17383;BME280;8809;51.892;8.384;2023-09-19T11:38:57;100090.66;;;25.25;47.94
17383;BME280;8809;51.892;8.384;2023-09-19T11:41:39;100089.88;;;25.54;47.79
17383;BME280;8809;51.892;8.384;2023-09-19T11:44:32;100084.66;;;25.81;48.96
17383;BME280;8809;51.892;8.384;2023-09-19T11:47:06;100083.69;;;25.84;48.54
17383;BME280;8809;51.892;8.384;2023-09-19T11:49:40;100082.56;;;25.93;48.44
17383;BME280;8809;51.892;8.384;2023-09-19T11:52:08;100080.94;;;26.16;48.38
17383;BME280;8809;51.892;8.384;2023-09-19T11:54:36;100090.56;;;25.62;48.17
17383;BME280;8809;51.892;8.384;2023-09-19T11:57:08;100084.66;;;25.81;46.96
17383;BME280;8809;51.892;8.384;2023-09-19T11:59:38;100089.72;;;25.58;48.06
17383;BME280;8809;51.892;8.384;2023-09-19T12:02:07;100085.31;;;25.57;48.54
17383;BME280;8809;51.892;8.384;2023-09-19T12:04:40;100081.56;;;25.66;48.54
17383;BME280;8809;51.892;8.384;2023-09-19T12:07:12;100093.91;;;25.70;49.07
17383;BME280;8809;51.892;8.384;2023-09-19T12:09:41;100087.78;;;25.96;49.07
17383;BME280;8809;51.892;8.384;2023-09-19T12:12:10;100088.06;;;26.16;48.52
17383;BME280;8809;51.892;8.384;2023-09-19T12:14:48;100098.34;;;25.69;48.30
17383;BME280;8809;51.892;8.384;2023-09-19T12:17:17;100083.34;;;25.31;48.33
17383;BME280;8809;51.892;8.384;2023-09-19T12:19:50;100068.38;;;25.26;48.80
17383;BME280;8809;51.892;8.384;2023-09-19T12:22:18;100063.00;;;25.60;49.43
17383;BME280;8809;51.892;8.384;2023-09-19T12:24:46;100060.94;;;26.00;47.79
17383;BME280;8809;51.892;8.384;2023-09-19T12:27:14;100068.00;;;25.72;47.76
17383;BME280;8809;51.892;8.384;2023-09-19T12:29:43;100071.88;;;25.93;47.54
17383;BME280;8809;51.892;8.384;2023-09-19T12:32:11;100066.22;;;25.72;47.25
17383;BME280;8809;51.892;8.384;2023-09-19T12:34:41;100060.59;;;26.11;47.21
17383;BME280;8809;51.892;8.384;2023-09-19T12:37:11;100055.53;;;26.02;46.53
17383;BME280;8809;51.892;8.384;2023-09-19T12:39:43;100060.94;;;26.30;46.33
17383;BME280;8809;51.892;8.384;2023-09-19T12:42:15;100070.06;;;26.52;46.58
17383;BME280;8809;51.892;8.384;2023-09-19T12:44:45;100060.16;;;26.54;45.30
17383;BME280;8809;51.892;8.384;2023-09-19T12:47:13;100067.25;;;26.55;44.99
17383;BME280;8809;51.892;8.384;2023-09-19T12:50:09;100059.25;;;26.27;43.58
17383;BME280;8809;51.892;8.384;2023-09-19T12:52:45;100044.63;;;26.65;43.41
17383;BME280;8809;51.892;8.384;2023-09-19T12:55:25;100045.88;;;26.27;43.29
17383;BME280;8809;51.892;8.384;2023-09-19T12:58:01;100041.50;;;26.52;45.31
17383;BME280;8809;51.892;8.384;2023-09-19T13:00:32;100040.09;;;26.11;44.88
17383;BME280;8809;51.892;8.384;2023-09-19T13:03:18;100050.59;;;25.88;45.75
17383;BME280;8809;51.892;8.384;2023-09-19T13:05:54;100037.78;;;25.70;45.12
17383;BME280;8809;51.892;8.384;2023-09-19T13:08:25;100067.28;;;25.96;46.07
17383;BME280;8809;51.892;8.384;2023-09-19T13:11:03;100041.31;;;26.01;45.27
17383;BME280;8809;51.892;8.384;2023-09-19T13:13:33;100037.75;;;26.58;46.11
17383;BME280;8809;51.892;8.384;2023-09-19T13:16:02;100033.31;;;26.29;44.89
17383;BME280;8809;51.892;8.384;2023-09-19T13:18:31;100039.47;;;26.33;45.66
17383;BME280;8809;51.892;8.384;2023-09-19T13:21:08;100029.06;;;26.51;45.28
17383;BME280;8809;51.892;8.384;2023-09-19T13:23:38;100038.03;;;26.49;44.98
17383;BME280;8809;51.892;8.384;2023-09-19T13:26:09;100035.63;;;26.41;45.32